createdAt,value
2024-01-18T00:02:12.101Z,99544.00
2024-01-18T00:04:38.685Z,99553.59
2024-01-18T00:07:05.258Z,99549.31
2024-01-18T00:09:32.095Z,99556.25
2024-01-18T00:11:58.738Z,99567.53
2024-01-18T00:14:25.189Z,99568.53
2024-01-18T00:16:51.604Z,99568.69
2024-01-18T00:19:18.155Z,99577.53
2024-01-18T00:21:44.850Z,99581.03
2024-01-18T00:24:11.578Z,99582.00
2024-01-18T00:26:38.188Z,99585.78
2024-01-18T00:29:04.571Z,99594.53
2024-01-18T00:31:31.011Z,99585.09
2024-01-18T00:34:00.815Z,99588.44
2024-01-18T00:36:28.697Z,99587.59
2024-01-18T00:38:55.309Z,99596.03
2024-01-18T00:41:22.240Z,99590.03
2024-01-18T00:43:49.365Z,99599.47
2024-01-18T00:46:19.850Z,99600.28
2024-01-18T00:48:46.329Z,99606.22
2024-01-18T00:51:13.253Z,99606.94
2024-01-18T00:53:40.186Z,99607.03
2024-01-18T00:56:11.047Z,99607.22
2024-01-18T00:58:38.265Z,99617.63
2024-01-18T01:01:04.807Z,99624.56
2024-01-18T01:03:31.344Z,99625.53
2024-01-18T01:05:57.837Z,99623.88
2024-01-18T01:08:24.395Z,99630.03
2024-01-18T01:10:50.789Z,99636.09
2024-01-18T01:13:17.199Z,99646.53
2024-01-18T01:15:43.815Z,99644.84
2024-01-18T01:18:12.601Z,99644.84
2024-01-18T01:20:39.187Z,99650.22
2024-01-18T01:23:05.725Z,99649.53
2024-01-18T01:25:32.171Z,99649.44
2024-01-18T01:27:58.624Z,99653.69
2024-01-18T01:30:25.115Z,99666.84
2024-01-18T01:32:51.805Z,99660.09
2024-01-18T01:35:18.475Z,99656.81
2024-01-18T01:37:44.906Z,99662.09
2024-01-18T01:40:11.634Z,99663.16
2024-01-18T01:42:38.201Z,99666.63
2024-01-18T01:45:05.383Z,99662.53
2024-01-18T01:47:31.908Z,99667.69
2024-01-18T01:49:58.576Z,99662.59
2024-01-18T01:52:26.848Z,99673.00
2024-01-18T01:54:53.524Z,99668.94
2024-01-18T01:57:21.955Z,99670.75
2024-01-18T01:59:48.917Z,99681.22
2024-01-18T02:02:16.931Z,99688.28
2024-01-18T02:04:43.657Z,99680.63
2024-01-18T02:07:13.006Z,99685.78
2024-01-18T02:09:40.808Z,99688.53
2024-01-18T02:12:09.373Z,99692.09
2024-01-18T02:14:36.168Z,99693.00
2024-01-18T02:17:05.048Z,99698.31
2024-01-18T02:19:32.109Z,99687.63
2024-01-18T02:22:00.466Z,99689.44
2024-01-18T02:24:34.595Z,99691.09
2024-01-18T02:27:01.208Z,99693.50
2024-01-18T02:29:27.817Z,99700.53
2024-01-18T02:31:54.252Z,99698.16
2024-01-18T02:34:20.784Z,99694.72
2024-01-18T02:36:47.489Z,99702.47
2024-01-18T02:39:14.108Z,99695.72
2024-01-18T02:41:42.351Z,99699.28
2024-01-18T02:44:09.199Z,99698.59
2024-01-18T02:46:35.679Z,99699.50
2024-01-18T02:49:02.631Z,99709.00
2024-01-18T02:51:29.162Z,99709.91
2024-01-18T02:53:55.692Z,99712.84
2024-01-18T02:56:22.671Z,99709.41
2024-01-18T02:58:49.118Z,99712.91
2024-01-18T03:01:15.551Z,99704.31
2024-01-18T03:03:41.996Z,99700.91
2024-01-18T03:06:08.478Z,99701.97
2024-01-18T03:08:35.564Z,99709.72
2024-01-18T03:11:01.932Z,99714.06
2024-01-18T03:13:28.381Z,99714.13
2024-01-18T03:15:54.915Z,99711.75
2024-01-18T03:18:21.394Z,99702.31
2024-01-18T03:20:47.850Z,99711.03
2024-01-18T03:23:15.139Z,99711.03
2024-01-18T03:25:41.651Z,99715.47
2024-01-18T03:28:08.049Z,99715.53
2024-01-18T03:30:34.578Z,99717.09
2024-01-18T03:33:01.282Z,99712.78
2024-01-18T03:35:27.838Z,99705.28
2024-01-18T03:37:54.279Z,99709.81
2024-01-18T03:40:20.747Z,99715.09
2024-01-18T03:42:47.234Z,99719.34
2024-01-18T03:45:14.024Z,99710.72
2024-01-18T03:47:40.595Z,99714.97
2024-01-18T03:50:07.600Z,99716.84
2024-01-18T03:52:34.047Z,99719.50
2024-01-18T03:55:00.482Z,99720.63
2024-01-18T03:57:26.903Z,99720.00
2024-01-18T03:59:53.706Z,99728.44
2024-01-18T04:02:20.209Z,99734.34
2024-01-18T04:04:46.641Z,99726.56
2024-01-18T04:07:13.122Z,99724.88
2024-01-18T04:09:39.727Z,99726.75
2024-01-18T04:12:06.464Z,99722.56
2024-01-18T04:14:32.926Z,99728.56
2024-01-18T04:16:59.510Z,99733.84
2024-01-18T04:19:25.970Z,99735.66
2024-01-18T04:21:52.532Z,99734.97
2024-01-18T04:24:19.017Z,99739.31
2024-01-18T04:26:45.459Z,99743.75
2024-01-18T04:29:14.089Z,99742.97
2024-01-18T04:31:40.616Z,99744.59
2024-01-18T04:34:07.020Z,99744.66
2024-01-18T04:36:34.642Z,99755.75
2024-01-18T04:39:01.217Z,99756.44
2024-01-18T04:41:28.709Z,99756.38
2024-01-18T04:43:55.816Z,99757.28
2024-01-18T04:46:23.805Z,99753.94
2024-01-18T04:48:50.267Z,99753.09
2024-01-18T04:51:16.767Z,99763.34
2024-01-18T04:53:43.255Z,99767.75
2024-01-18T04:56:10.224Z,99770.38
2024-01-18T04:58:38.003Z,99778.06
2024-01-18T05:01:06.041Z,99786.94
2024-01-18T05:03:33.071Z,99787.66
2024-01-18T05:05:59.853Z,99793.66
2024-01-18T05:08:26.359Z,99795.41
2024-01-18T05:10:54.972Z,99791.41
2024-01-18T05:13:22.484Z,99792.88
2024-01-18T05:15:49.266Z,99791.53
2024-01-18T05:18:16.116Z,99793.34
2024-01-18T05:20:42.644Z,99798.69
2024-01-18T05:23:09.409Z,99807.25
2024-01-18T05:25:35.844Z,99801.34
2024-01-18T05:28:02.384Z,99790.53
2024-01-18T05:30:28.891Z,99812.69
2024-01-18T05:32:55.703Z,99807.59
2024-01-18T05:35:22.127Z,99812.00
2024-01-18T05:37:48.580Z,99818.16
2024-01-18T05:40:15.193Z,99814.88
2024-01-18T05:42:41.714Z,99816.66
2024-01-18T05:45:08.435Z,99826.63
2024-01-18T05:47:35.338Z,99836.91
2024-01-18T05:50:02.425Z,99833.31
2024-01-18T05:52:30.211Z,99831.66
2024-01-18T05:54:57.224Z,99831.78
2024-01-18T05:57:25.623Z,99835.25
2024-01-18T05:59:52.260Z,99842.91
2024-01-18T06:02:21.405Z,99845.44
2024-01-18T06:04:48.616Z,99851.94
2024-01-18T06:07:15.223Z,99851.50
2024-01-18T06:09:41.795Z,99857.00
2024-01-18T06:12:08.491Z,99858.22
2024-01-18T06:14:34.949Z,99854.88
2024-01-18T06:17:01.346Z,99868.78
2024-01-18T06:19:27.818Z,99860.47
2024-01-18T06:21:55.550Z,99865.75
2024-01-18T06:24:22.210Z,99872.56
2024-01-18T06:26:49.896Z,99874.25
2024-01-18T06:29:17.342Z,99885.34
2024-01-18T06:31:43.840Z,99885.41
2024-01-18T06:34:11.264Z,99889.72
2024-01-18T06:36:40.568Z,99897.56
2024-01-18T06:39:07.086Z,99891.72
2024-01-18T06:41:34.019Z,99901.28
2024-01-18T06:44:00.510Z,99906.50
2024-01-18T06:46:27.034Z,99902.25
2024-01-18T06:48:58.244Z,99904.03
2024-01-18T06:51:25.338Z,99904.03
2024-01-18T06:53:51.933Z,99906.66
2024-01-18T06:56:18.400Z,99910.19
2024-01-18T06:58:45.287Z,99924.09
2024-01-18T07:01:14.017Z,99925.81
2024-01-18T07:03:42.687Z,99929.38
2024-01-18T07:06:13.010Z,99927.91
2024-01-18T07:08:39.671Z,99933.84
2024-01-18T07:11:06.269Z,99929.47
2024-01-18T07:13:32.965Z,99939.16
2024-01-18T07:15:59.518Z,99940.09
2024-01-18T07:18:26.923Z,99944.66
2024-01-18T07:20:53.729Z,99947.25
2024-01-18T07:23:20.250Z,99956.66
2024-01-18T07:25:46.827Z,99946.16
2024-01-18T07:28:13.476Z,99958.22
2024-01-18T07:30:40.404Z,99954.84
2024-01-18T07:33:07.307Z,99957.59
2024-01-18T07:35:33.865Z,99950.81
2024-01-18T07:38:00.457Z,99959.50
2024-01-18T07:40:26.913Z,99956.84
2024-01-18T07:42:53.551Z,99960.31
2024-01-18T07:45:20.064Z,99976.63
2024-01-18T07:47:47.926Z,99971.47
2024-01-18T07:50:25.124Z,99973.16
2024-01-18T07:53:00.637Z,99984.28
2024-01-18T07:55:27.070Z,99980.03
2024-01-18T07:57:53.447Z,99987.75
2024-01-18T08:00:19.988Z,99995.47
2024-01-18T08:02:46.599Z,99998.03
2024-01-18T08:05:14.049Z,100004.03
2024-01-18T08:07:40.896Z,100012.59
2024-01-18T08:10:09.838Z,100015.97
2024-01-18T08:12:37.545Z,100018.38
2024-01-18T08:15:05.607Z,100020.81
2024-01-18T08:17:32.121Z,100028.50
2024-01-18T08:19:58.669Z,100014.78
2024-01-18T08:22:25.149Z,100021.47
2024-01-18T08:24:51.914Z,100030.06
2024-01-18T08:27:18.464Z,100038.47
2024-01-18T08:29:45.062Z,100043.53
2024-01-18T08:32:11.571Z,100058.09
2024-01-18T08:34:38.037Z,100056.31
2024-01-18T08:37:05.311Z,100057.25
2024-01-18T08:39:31.982Z,100066.47
2024-01-18T08:42:00.672Z,100068.03
2024-01-18T08:44:30.062Z,100072.91
2024-01-18T08:46:57.067Z,100070.13
2024-01-18T08:49:26.936Z,100080.25
2024-01-18T08:51:54.166Z,100079.22
2024-01-18T08:54:22.068Z,100083.22
2024-01-18T08:56:48.922Z,100085.59
2024-01-18T08:59:15.334Z,100084.66
2024-01-18T09:01:42.444Z,100088.81
2024-01-18T09:04:09.024Z,100096.25
2024-01-18T09:06:36.829Z,100101.06
2024-01-18T09:09:03.537Z,100107.78
2024-01-18T09:11:30.259Z,100116.16
2024-01-18T09:13:56.783Z,100110.00
2024-01-18T09:16:23.226Z,100113.31
2024-01-18T09:19:01.013Z,100118.28
2024-01-18T09:21:45.927Z,100118.88
2024-01-18T09:24:12.892Z,100123.88
2024-01-18T09:26:39.449Z,100130.47
2024-01-18T09:29:07.036Z,100127.66
2024-01-18T09:31:40.846Z,100142.03
2024-01-18T09:34:09.667Z,100144.25
2024-01-18T09:36:36.244Z,100153.47
2024-01-18T09:39:02.871Z,100161.00
2024-01-18T09:41:30.777Z,100158.13
2024-01-18T09:44:04.493Z,100165.44
2024-01-18T09:46:31.707Z,100170.25
2024-01-18T09:49:02.060Z,100170.81
2024-01-18T09:51:30.788Z,100175.53
2024-01-18T09:53:57.607Z,100182.97
2024-01-18T09:56:27.637Z,100194.66
2024-01-18T09:58:54.804Z,100205.63
2024-01-18T10:01:22.926Z,100211.25
2024-01-18T10:03:50.413Z,100215.97
2024-01-18T10:06:18.829Z,100221.38
2024-01-18T10:08:50.310Z,100225.94
2024-01-18T10:11:16.994Z,100228.78
2024-01-18T10:13:57.552Z,100229.16
2024-01-18T10:16:36.893Z,100222.84
2024-01-18T10:19:05.543Z,100232.81
2024-01-18T10:21:36.072Z,100239.09
2024-01-18T10:24:04.697Z,100248.31
2024-01-18T10:26:32.635Z,100245.41
2024-01-18T10:29:01.360Z,100250.22
2024-01-18T10:31:29.728Z,100261.91
2024-01-18T10:33:56.345Z,100263.00
2024-01-18T10:36:22.799Z,100265.31
2024-01-18T10:38:49.392Z,100277.34
2024-01-18T10:41:19.584Z,100277.91
2024-01-18T10:43:48.166Z,100279.91
2024-01-18T10:46:15.003Z,100267.38
2024-01-18T10:48:47.038Z,100273.72
2024-01-18T10:51:13.954Z,100282.63
2024-01-18T10:53:42.987Z,100278.91
2024-01-18T10:56:09.891Z,100284.63
2024-01-18T10:58:36.485Z,100286.22
2024-01-18T11:01:05.032Z,100295.63
2024-01-18T11:03:32.531Z,100299.41
2024-01-18T11:06:01.772Z,100309.19
2024-01-18T11:08:29.622Z,100320.38
2024-01-18T11:10:56.078Z,100317.97
2024-01-18T11:13:23.182Z,100331.16
2024-01-18T11:15:53.830Z,100334.72
2024-01-18T11:18:22.187Z,100331.38
2024-01-18T11:21:07.898Z,100336.63
2024-01-18T11:23:39.593Z,100329.53
2024-01-18T11:26:08.929Z,100329.47
2024-01-18T11:28:36.440Z,100337.31
2024-01-18T11:31:03.052Z,100340.75
2024-01-18T11:33:29.809Z,100354.50
2024-01-18T11:35:58.896Z,100349.25
2024-01-18T11:38:26.874Z,100357.03
2024-01-18T11:40:57.307Z,100361.22
2024-01-18T11:43:56.939Z,100361.06
2024-01-18T11:46:40.247Z,100356.56
2024-01-18T11:49:07.580Z,100366.72
2024-01-18T11:51:35.043Z,100356.88
2024-01-18T11:54:03.120Z,100360.94
2024-01-18T11:56:30.192Z,100363.22
2024-01-18T11:59:01.215Z,100364.75
2024-01-18T12:01:28.127Z,100370.56
2024-01-18T12:03:54.676Z,100367.81
2024-01-18T12:06:22.448Z,100370.00
2024-01-18T12:08:48.917Z,100382.75
2024-01-18T12:11:15.410Z,100374.75
2024-01-18T12:13:42.761Z,100378.00
2024-01-18T12:16:09.347Z,100386.50
2024-01-18T12:18:44.197Z,100400.94
2024-01-18T12:21:11.301Z,100402.47
2024-01-18T12:23:38.415Z,100409.16
2024-01-18T12:26:05.414Z,100407.19
2024-01-18T12:28:31.953Z,100420.84
2024-01-18T12:31:04.601Z,100417.25
2024-01-18T12:33:32.349Z,100416.66
2024-01-18T12:36:00.692Z,100415.72
2024-01-18T12:38:28.930Z,100425.28
2024-01-18T12:40:55.393Z,100430.63
2024-01-18T12:43:22.168Z,100426.19
2024-01-18T12:45:52.818Z,100430.41
2024-01-18T12:48:20.632Z,100430.31
2024-01-18T12:50:47.673Z,100436.38
2024-01-18T12:53:14.576Z,100438.19
2024-01-18T12:55:41.834Z,100439.13
2024-01-18T12:58:13.606Z,100447.59
2024-01-18T13:00:40.214Z,100453.38
2024-01-18T13:03:17.821Z,100454.97
2024-01-18T13:05:45.568Z,100456.38
2024-01-18T13:08:12.739Z,100456.94
2024-01-18T13:10:39.714Z,100461.00
2024-01-18T13:13:09.585Z,100458.47
2024-01-18T13:15:39.055Z,100459.41
2024-01-18T13:18:13.035Z,100473.16
2024-01-18T13:20:42.824Z,100471.31
2024-01-18T13:23:11.577Z,100478.84
2024-01-18T13:25:38.128Z,100487.34
2024-01-18T13:28:05.447Z,100488.03
2024-01-18T13:30:32.064Z,100491.56
2024-01-18T13:33:00.083Z,100496.06
2024-01-18T13:35:28.240Z,100493.47
2024-01-18T13:37:54.917Z,100503.00
2024-01-18T13:40:21.969Z,100507.28
2024-01-18T13:42:48.764Z,100507.28
2024-01-18T13:45:19.397Z,100517.63
2024-01-18T13:47:46.118Z,100527.03
2024-01-18T13:50:12.681Z,100525.34
2024-01-18T13:52:39.215Z,100526.19
2024-01-18T13:55:06.086Z,100531.31
2024-01-18T13:57:35.349Z,100527.88
2024-01-18T14:00:01.855Z,100539.09
2024-01-18T14:02:28.340Z,100552.09
2024-01-18T14:04:54.836Z,100556.59
2024-01-18T14:07:21.411Z,100557.38
2024-01-18T14:09:47.987Z,100572.97
2024-01-18T14:12:14.537Z,100572.59
2024-01-18T14:14:40.984Z,100580.28
2024-01-18T14:17:08.162Z,100582.16
2024-01-18T14:19:37.494Z,100589.94
2024-01-18T14:22:04.142Z,100598.81
2024-01-18T14:24:31.960Z,100599.88
2024-01-18T14:26:58.543Z,100607.66
2024-01-18T14:29:24.993Z,100610.34
2024-01-18T14:31:51.799Z,100624.41
2024-01-18T14:34:18.486Z,100628.78
2024-01-18T14:36:45.002Z,100633.13
2024-01-18T14:39:12.358Z,100634.06
2024-01-18T14:41:38.850Z,100643.59
2024-01-18T14:44:05.837Z,100654.91
2024-01-18T14:46:33.267Z,100648.03
2024-01-18T14:49:00.630Z,100664.59
2024-01-18T14:51:27.448Z,100668.06
2024-01-18T14:53:53.997Z,100675.06
2024-01-18T14:56:20.536Z,100680.28
2024-01-18T14:58:47.592Z,100684.50
2024-01-18T15:01:14.329Z,100691.44
2024-01-18T15:03:44.515Z,100697.63
2024-01-18T15:06:15.757Z,100706.31
2024-01-18T15:08:42.749Z,100713.34
2024-01-18T15:11:09.476Z,100718.63
2024-01-18T15:13:35.955Z,100717.88
2024-01-18T15:16:05.360Z,100721.53
2024-01-18T15:18:33.966Z,100728.66
2024-01-18T15:21:00.722Z,100728.66
2024-01-18T15:23:27.163Z,100732.25
2024-01-18T15:25:53.584Z,100745.47
2024-01-18T15:28:21.730Z,100744.69
2024-01-18T15:30:49.173Z,100756.00
2024-01-18T15:33:15.792Z,100751.72
2024-01-18T15:35:42.392Z,100765.59
2024-01-18T15:38:08.985Z,100770.94
2024-01-18T15:40:35.590Z,100778.78
2024-01-18T15:43:02.144Z,100784.13
2024-01-18T15:45:28.617Z,100785.13
2024-01-18T15:47:56.507Z,100793.81
2024-01-18T15:50:23.587Z,100799.28
2024-01-18T15:52:50.158Z,100809.34
2024-01-18T15:55:16.755Z,100815.06
2024-01-18T15:57:43.260Z,100818.81
2024-01-18T16:00:10.393Z,100834.19
2024-01-18T16:02:36.814Z,100831.03
2024-01-18T16:05:06.085Z,100841.53
2024-01-18T16:07:34.250Z,100846.09
2024-01-18T16:10:00.814Z,100850.56
2024-01-18T16:12:27.386Z,100859.19
2024-01-18T16:14:53.920Z,100869.84
2024-01-18T16:17:20.440Z,100868.69
2024-01-18T16:19:46.971Z,100876.84
2024-01-18T16:22:13.734Z,100880.44
2024-01-18T16:24:40.399Z,100882.41
2024-01-18T16:27:06.836Z,100893.09
2024-01-18T16:29:41.556Z,100898.38
2024-01-18T16:32:16.628Z,100907.25
2024-01-18T16:34:43.832Z,100913.50
2024-01-18T16:37:10.821Z,100915.50
2024-01-18T16:39:37.310Z,100921.78
2024-01-18T16:42:04.529Z,100927.13
2024-01-18T16:44:30.963Z,100932.47
2024-01-18T16:46:57.343Z,100939.56
2024-01-18T16:49:23.964Z,100949.16
2024-01-18T16:51:50.502Z,100941.53
2024-01-18T16:54:19.517Z,100943.47
2024-01-18T16:56:46.444Z,100943.53
2024-01-18T16:59:12.886Z,100955.75
2024-01-18T17:01:39.349Z,100966.22
2024-01-18T17:04:09.216Z,100968.72
2024-01-18T17:06:36.176Z,100978.59
2024-01-18T17:09:02.757Z,100977.09
2024-01-18T17:11:29.271Z,100988.56
2024-01-18T17:13:55.771Z,100983.53
2024-01-18T17:16:22.230Z,100988.97
2024-01-18T17:18:48.668Z,100996.06
2024-01-18T17:21:16.128Z,101005.59
2024-01-18T17:23:44.940Z,101008.34
2024-01-18T17:26:12.022Z,101016.16
2024-01-18T17:28:40.324Z,101009.34
2024-01-18T17:31:07.174Z,101013.09
2024-01-18T17:33:33.988Z,101022.88
2024-01-18T17:36:00.491Z,101027.31
2024-01-18T17:38:27.013Z,101035.94
2024-01-18T17:40:53.458Z,101033.34
2024-01-18T17:43:20.245Z,101030.81
2024-01-18T17:45:46.706Z,101037.91
2024-01-18T17:48:13.263Z,101038.97
2024-01-18T17:50:41.356Z,101041.75
2024-01-18T17:53:08.019Z,101053.03
2024-01-18T17:55:35.040Z,101055.53
2024-01-18T17:58:01.464Z,101043.50
2024-01-18T18:00:33.158Z,101058.19
2024-01-18T18:03:05.967Z,101054.84
2024-01-18T18:05:32.463Z,101062.69
2024-01-18T18:08:00.695Z,101066.19
2024-01-18T18:10:27.164Z,101063.63
2024-01-18T18:12:53.586Z,101075.66
2024-01-18T18:15:20.108Z,101072.38
2024-01-18T18:17:46.679Z,101081.09
2024-01-18T18:20:13.925Z,101084.63
2024-01-18T18:22:40.319Z,101088.06
2024-01-18T18:25:07.060Z,101087.38
2024-01-18T18:27:35.650Z,101094.44
2024-01-18T18:30:02.135Z,101102.28
2024-01-18T18:32:28.607Z,101104.25
2024-01-18T18:34:55.104Z,101100.06
2024-01-18T18:37:26.314Z,101106.94
2024-01-18T18:39:58.528Z,101112.94
2024-01-18T18:42:24.999Z,101117.38
2024-01-18T18:44:51.469Z,101121.59
2024-01-18T18:47:17.917Z,101123.38
2024-01-18T18:49:45.343Z,101127.91
2024-01-18T18:52:12.006Z,101136.63
2024-01-18T18:54:38.433Z,101141.03
2024-01-18T18:57:05.214Z,101150.53
2024-01-18T18:59:35.941Z,101156.59
2024-01-18T19:02:06.575Z,101165.22
2024-01-18T19:04:33.443Z,101170.38
2024-01-18T19:06:59.946Z,101178.19
2024-01-18T19:09:27.330Z,101180.81
2024-01-18T19:11:53.754Z,101186.94
2024-01-18T19:14:20.167Z,101183.53
2024-01-18T19:16:46.592Z,101181.84
2024-01-18T19:19:13.118Z,101189.75
2024-01-18T19:21:39.594Z,101194.13
2024-01-18T19:24:06.084Z,101195.81
2024-01-18T19:26:32.506Z,101207.88
2024-01-18T19:28:58.909Z,101206.16
2024-01-18T19:31:25.339Z,101215.66
2024-01-18T19:33:53.581Z,101224.22
2024-01-18T19:36:20.073Z,101224.22
2024-01-18T19:38:46.637Z,101233.78
2024-01-18T19:41:13.873Z,101236.38
2024-01-18T19:43:40.291Z,101238.16
2024-01-18T19:46:06.912Z,101236.56
2024-01-18T19:48:33.488Z,101233.16
2024-01-18T19:50:59.954Z,101232.28
2024-01-18T19:53:26.453Z,101243.53
2024-01-18T19:55:53.685Z,101245.22
2024-01-18T19:58:20.211Z,101246.09
2024-01-18T20:00:46.783Z,101252.19
2024-01-18T20:03:13.393Z,101254.81
2024-01-18T20:05:39.894Z,101256.66
2024-01-18T20:08:06.889Z,101257.50
2024-01-18T20:10:33.292Z,101254.09
2024-01-18T20:12:59.897Z,101254.13
2024-01-18T20:15:26.395Z,101256.72
2024-01-18T20:17:52.856Z,101261.94
2024-01-18T20:20:19.657Z,101264.53
2024-01-18T20:22:47.882Z,101269.69
2024-01-18T20:25:15.694Z,101275.75
2024-01-18T20:27:43.281Z,101274.06
2024-01-18T20:30:10.134Z,101278.47
2024-01-18T20:32:37.626Z,101275.91
2024-01-18T20:35:04.626Z,101289.81
2024-01-18T20:37:32.321Z,101290.84
2024-01-18T20:39:58.874Z,101292.75
2024-01-18T20:42:25.302Z,101304.03
2024-01-18T20:44:51.778Z,101300.66
2024-01-18T20:47:18.360Z,101299.84
2024-01-18T20:49:44.940Z,101305.84
2024-01-18T20:52:11.485Z,101310.16
2024-01-18T20:54:38.347Z,101307.56
2024-01-18T20:57:05.751Z,101318.72
2024-01-18T20:59:32.186Z,101314.50
2024-01-18T21:01:58.630Z,101321.44
2024-01-18T21:04:25.166Z,101321.38
2024-01-18T21:06:51.620Z,101323.13
2024-01-18T21:09:18.085Z,101330.94
2024-01-18T21:11:45.168Z,101337.00
2024-01-18T21:14:11.790Z,101334.44
2024-01-18T21:16:38.229Z,101340.47
2024-01-18T21:19:04.740Z,101347.34
2024-01-18T21:21:31.305Z,101346.44
2024-01-18T21:23:57.783Z,101348.16
2024-01-18T21:26:24.807Z,101356.81
2024-01-18T21:28:51.233Z,101353.41
2024-01-18T21:31:17.602Z,101364.53
2024-01-18T21:33:44.053Z,101361.94
2024-01-18T21:36:10.535Z,101357.56
2024-01-18T21:38:37.077Z,101367.94
2024-01-18T21:41:03.641Z,101368.88
2024-01-18T21:43:30.079Z,101361.94
2024-01-18T21:45:56.840Z,101376.50
2024-01-18T21:48:24.700Z,101378.13
2024-01-18T21:50:51.913Z,101375.53
2024-01-18T21:53:19.074Z,101379.78
2024-01-18T21:55:46.358Z,101388.34
2024-01-18T21:58:13.187Z,101386.63
2024-01-18T22:00:40.213Z,101394.44
2024-01-18T22:03:06.899Z,101391.84
2024-01-18T22:05:33.423Z,101399.53
2024-01-18T22:08:02.197Z,101397.84
2024-01-18T22:10:28.945Z,101399.56
2024-01-18T22:12:55.370Z,101402.16
2024-01-18T22:15:21.790Z,101399.56
2024-01-18T22:17:48.240Z,101405.63
2024-01-18T22:20:14.974Z,101404.72
2024-01-18T22:22:41.439Z,101411.59
2024-01-18T22:25:09.264Z,101417.59
2024-01-18T22:27:35.618Z,101416.75
2024-01-18T22:30:02.461Z,101424.50
2024-01-18T22:32:28.963Z,101431.38
2024-01-18T22:34:55.478Z,101429.63
2024-01-18T22:37:21.949Z,101438.16
2024-01-18T22:39:48.406Z,101441.56
2024-01-18T22:42:15.012Z,101446.69
2024-01-18T22:44:41.541Z,101450.13
2024-01-18T22:47:08.209Z,101458.72
2024-01-18T22:49:35.490Z,101450.09
2024-01-18T22:52:02.097Z,101453.50
2024-01-18T22:54:29.271Z,101451.78
2024-01-18T22:56:56.479Z,101444.03
2024-01-18T22:59:23.161Z,101451.78
2024-01-18T23:01:49.639Z,101443.16
2024-01-18T23:04:16.041Z,101448.34
2024-01-18T23:06:43.107Z,101455.25
2024-01-18T23:09:11.434Z,101450.94
2024-01-18T23:11:38.104Z,101456.03
2024-01-18T23:14:04.595Z,101453.44
2024-01-18T23:16:31.074Z,101460.31
2024-01-18T23:18:57.557Z,101463.69
2024-01-18T23:21:24.032Z,101453.28
2024-01-18T23:23:51.453Z,101453.25
2024-01-18T23:26:18.913Z,101448.09
2024-01-18T23:28:45.453Z,101455.81
2024-01-18T23:31:11.854Z,101455.78
2024-01-18T23:33:38.334Z,101461.81
2024-01-18T23:36:04.980Z,101460.94
2024-01-18T23:38:31.766Z,101462.66
2024-01-18T23:40:58.270Z,101473.78
2024-01-18T23:43:24.679Z,101472.09
2024-01-18T23:45:51.073Z,101474.66
2024-01-18T23:48:17.560Z,101479.81
2024-01-18T23:50:44.273Z,101487.47
2024-01-18T23:53:10.799Z,101489.97
2024-01-18T23:55:37.232Z,101494.25
2024-01-18T23:58:03.722Z,101487.34
